createdAt,value
2022-10-11T00:02:17.336Z,12.87
2022-10-11T00:07:42.298Z,12.89
2022-10-11T00:13:09.325Z,12.82
2022-10-11T00:18:34.362Z,12.74
2022-10-11T00:23:59.314Z,12.71
2022-10-11T00:29:27.334Z,12.64
2022-10-11T00:34:51.346Z,12.67
2022-10-11T00:40:20.330Z,12.67
2022-10-11T00:46:26.324Z,12.73
2022-10-11T00:51:59.420Z,12.75
2022-10-11T00:57:28.345Z,12.72
2022-10-11T01:02:53.346Z,12.70
2022-10-11T01:08:22.419Z,12.60
2022-10-11T01:13:57.377Z,12.39
2022-10-11T01:19:50.316Z,12.30
2022-10-11T01:25:38.423Z,12.18
2022-10-11T01:31:08.334Z,12.08
2022-10-11T01:42:00.358Z,11.90
2022-10-11T01:47:27.375Z,11.78
2022-10-11T01:52:54.375Z,11.71
2022-10-11T01:58:31.353Z,11.67
2022-10-11T02:04:07.376Z,11.63
2022-10-11T02:09:40.366Z,11.57
2022-10-11T02:15:07.374Z,11.52
2022-10-11T02:20:37.419Z,11.48
2022-10-11T02:26:03.740Z,11.45
2022-10-11T02:31:29.342Z,11.48
2022-10-11T02:37:08.393Z,11.46
2022-10-11T02:42:44.360Z,11.45
2022-10-11T02:48:10.393Z,11.48
2022-10-11T02:53:39.551Z,11.47
2022-10-11T02:59:04.413Z,11.46
2022-10-11T03:04:28.388Z,11.46
2022-10-11T03:09:56.387Z,11.44
2022-10-11T03:15:21.418Z,11.36
2022-10-11T03:20:46.411Z,11.32
2022-10-11T03:26:13.448Z,11.28
2022-10-11T03:31:38.422Z,11.18
2022-10-11T03:37:03.402Z,11.07
2022-10-11T03:42:38.429Z,10.96
2022-10-11T03:48:03.417Z,10.85
2022-10-11T03:53:28.411Z,10.79
2022-10-11T03:59:08.455Z,10.72
2022-10-11T04:04:33.518Z,10.69
2022-10-11T04:09:59.586Z,10.55
2022-10-11T04:21:26.638Z,10.32
2022-10-11T04:26:53.016Z,10.27
2022-10-11T04:32:19.450Z,10.22
2022-10-11T04:43:12.730Z,9.66
2022-10-11T04:48:41.582Z,9.56
2022-10-11T04:54:06.739Z,9.43
2022-10-11T04:59:39.546Z,9.30
2022-10-11T05:05:02.537Z,9.24
2022-10-11T05:10:30.628Z,9.16
2022-10-11T05:15:55.814Z,9.09
2022-10-11T05:21:27.509Z,9.05
2022-10-11T05:26:52.499Z,9.00
2022-10-11T05:32:20.438Z,8.97
2022-10-11T05:37:50.585Z,8.93
2022-10-11T05:43:16.694Z,8.90
2022-10-11T05:48:40.482Z,8.90
2022-10-11T05:54:09.515Z,8.88
2022-10-11T05:59:33.478Z,8.79
2022-10-11T06:04:58.486Z,8.75
2022-10-11T06:10:25.591Z,8.71
2022-10-11T06:15:50.559Z,8.60
2022-10-11T06:21:17.982Z,8.61
2022-10-11T06:26:45.930Z,8.66
2022-10-11T06:32:09.496Z,8.62
2022-10-11T06:37:34.524Z,8.62
2022-10-11T06:43:08.639Z,8.55
2022-10-11T06:48:33.514Z,8.47
2022-10-11T06:54:02.502Z,8.45
2022-10-11T06:59:30.543Z,8.47
2022-10-11T07:04:56.509Z,8.53
2022-10-11T07:10:21.528Z,8.63
2022-10-11T07:15:55.547Z,8.77
2022-10-11T07:21:22.548Z,8.90
2022-10-11T07:26:52.280Z,9.02
2022-10-11T07:32:20.542Z,9.16
2022-10-11T07:37:44.524Z,9.25
2022-10-11T07:43:17.565Z,9.38
2022-10-11T07:48:45.567Z,9.49
2022-10-11T07:54:11.523Z,9.58
2022-10-11T07:59:38.579Z,9.65
2022-10-11T08:05:10.558Z,9.71
2022-10-11T08:10:36.563Z,9.82
2022-10-11T08:16:01.737Z,9.91
2022-10-11T08:21:29.952Z,10.01
2022-10-11T08:26:56.602Z,10.14
2022-10-11T08:32:24.628Z,10.22
2022-10-11T08:37:52.616Z,10.32
2022-10-11T08:43:32.739Z,10.50
2022-10-11T08:49:02.457Z,10.67
2022-10-11T08:54:36.574Z,10.78
2022-10-11T09:00:16.587Z,11.00
2022-10-11T09:05:46.557Z,11.22
2022-10-11T09:11:24.569Z,11.36
2022-10-11T09:17:03.616Z,11.55
2022-10-11T09:22:35.592Z,11.70
2022-10-11T09:28:15.614Z,11.71
2022-10-11T09:33:43.706Z,11.76
2022-10-11T09:39:15.608Z,11.75
2022-10-11T09:44:46.626Z,11.72
2022-10-11T09:50:15.606Z,11.77
2022-10-11T09:55:43.633Z,11.89
2022-10-11T10:01:17.683Z,11.98
2022-10-11T10:06:42.581Z,11.97
2022-10-11T10:12:06.613Z,11.97
2022-10-11T10:17:34.593Z,11.97
2022-10-11T10:23:02.647Z,11.98
2022-10-11T10:28:30.627Z,12.08
2022-10-11T10:33:58.663Z,12.20
2022-10-11T10:39:36.622Z,12.59
2022-10-11T10:45:11.927Z,12.90
2022-10-11T10:50:51.635Z,13.14
2022-10-11T10:56:24.620Z,13.23
2022-10-11T11:02:15.758Z,13.10
2022-10-11T11:07:59.656Z,12.91
2022-10-11T11:13:32.636Z,12.81
2022-10-11T11:19:04.705Z,12.71
2022-10-11T11:24:48.642Z,12.61
2022-10-11T11:30:19.644Z,12.78
2022-10-11T11:35:51.670Z,12.88
2022-10-11T11:41:28.654Z,13.13
2022-10-11T11:46:58.686Z,13.34
2022-10-11T11:52:29.719Z,13.51
2022-10-11T11:58:07.722Z,13.70
2022-10-11T12:03:40.693Z,13.83
2022-10-11T12:09:11.681Z,13.98
2022-10-11T12:14:49.674Z,14.14
2022-10-11T12:20:28.683Z,14.38
2022-10-11T12:26:02.699Z,14.53
2022-10-11T12:31:36.703Z,14.72
2022-10-11T12:37:06.578Z,14.78
2022-10-11T12:42:47.670Z,14.98
2022-10-11T12:48:34.875Z,15.08
2022-10-11T12:54:27.422Z,15.05
2022-10-11T12:59:55.715Z,15.29
2022-10-11T13:05:31.735Z,15.22
2022-10-11T13:10:57.757Z,15.46
2022-10-11T13:16:27.742Z,15.90
2022-10-11T13:22:00.994Z,16.04
2022-10-11T13:27:33.727Z,16.14
2022-10-11T13:32:58.731Z,16.03
2022-10-11T13:38:35.734Z,15.65
2022-10-11T13:44:01.725Z,15.85
2022-10-11T13:49:46.764Z,15.68
2022-10-11T13:55:33.747Z,15.59
2022-10-11T14:01:09.773Z,15.29
2022-10-11T14:06:48.747Z,15.44
2022-10-11T14:12:45.729Z,15.33
2022-10-11T14:18:12.726Z,15.21
2022-10-11T14:23:36.814Z,15.34
2022-10-11T14:29:07.784Z,15.32
2022-10-11T14:34:35.769Z,15.69
2022-10-11T14:40:01.976Z,16.09
2022-10-11T14:45:29.745Z,16.37
2022-10-11T14:51:01.787Z,16.73
2022-10-11T14:56:26.434Z,17.03
2022-10-11T15:02:28.797Z,17.03
2022-10-11T15:07:54.924Z,17.06
2022-10-11T15:13:19.890Z,16.72
2022-10-11T15:18:46.795Z,16.60
2022-10-11T15:29:35.811Z,16.36
2022-10-11T15:35:03.864Z,16.25
2022-10-11T15:40:39.804Z,16.13
2022-10-11T15:46:20.832Z,15.92
2022-10-11T15:51:49.977Z,15.79
2022-10-11T15:57:13.806Z,15.46
2022-10-11T16:02:38.855Z,14.98
2022-10-11T16:08:05.869Z,14.69
2022-10-11T16:13:30.822Z,14.30
2022-10-11T16:18:56.274Z,13.98
2022-10-11T16:24:23.842Z,13.73
2022-10-11T16:29:47.817Z,13.53
2022-10-11T16:35:13.884Z,13.31
2022-10-11T16:40:44.838Z,13.06
2022-10-11T16:46:09.865Z,12.85
2022-10-11T16:51:34.862Z,12.60
2022-10-11T16:57:02.872Z,12.19
2022-10-11T17:02:32.674Z,11.92
2022-10-11T17:07:57.926Z,11.86
2022-10-11T17:13:25.862Z,11.77
2022-10-11T17:18:50.897Z,11.53
2022-10-11T17:24:15.871Z,11.40
2022-10-11T17:29:44.895Z,11.27
2022-10-11T17:35:10.867Z,11.07
2022-10-11T17:40:36.906Z,10.93
2022-10-11T17:46:13.886Z,10.67
2022-10-11T17:51:38.909Z,10.50
2022-10-11T17:57:02.942Z,10.27
2022-10-11T18:02:30.935Z,9.84
2022-10-11T18:07:55.917Z,9.78
2022-10-11T18:13:42.943Z,9.68
2022-10-11T18:19:23.909Z,9.54
2022-10-11T18:24:48.903Z,9.45
2022-10-11T18:30:15.916Z,9.37
2022-10-11T18:35:42.889Z,9.28
2022-10-11T18:41:13.872Z,9.00
2022-10-11T18:46:40.965Z,8.90
2022-10-11T18:52:09.179Z,8.90
2022-10-11T18:57:32.892Z,8.83
2022-10-11T19:02:58.033Z,8.84
2022-10-11T19:08:24.929Z,8.84
2022-10-11T19:13:49.938Z,8.81
2022-10-11T19:19:13.883Z,8.79
2022-10-11T19:24:43.110Z,8.77
2022-10-11T19:30:06.926Z,8.74
2022-10-11T19:35:32.302Z,8.66
2022-10-11T19:40:59.066Z,8.55
2022-10-11T19:46:49.780Z,8.44
2022-10-11T19:52:11.261Z,8.39
2022-10-11T19:57:38.926Z,8.41
2022-10-11T20:03:04.241Z,8.30
2022-10-11T20:08:29.955Z,8.17
2022-10-11T20:13:57.019Z,8.08
2022-10-11T20:19:26.171Z,8.01
2022-10-11T20:24:49.922Z,7.95
2022-10-11T20:30:20.989Z,7.93
2022-10-11T20:35:44.966Z,7.76
2022-10-11T20:41:13.974Z,7.69
2022-10-11T20:46:43.007Z,7.58
2022-10-11T20:52:07.977Z,7.43
2022-10-11T20:57:32.198Z,7.36
2022-10-11T21:03:01.957Z,7.29
2022-10-11T21:08:26.023Z,7.21
2022-10-11T21:13:51.961Z,7.19
2022-10-11T21:19:18.997Z,7.13
2022-10-11T21:24:44.178Z,7.07
2022-10-11T21:30:07.981Z,6.97
2022-10-11T21:35:35.973Z,6.92
2022-10-11T21:40:59.998Z,6.77
2022-10-11T21:46:47.700Z,6.76
2022-10-11T21:52:15.050Z,6.69
2022-10-11T21:57:40.074Z,6.65
2022-10-11T22:03:06.985Z,6.56
2022-10-11T22:08:35.041Z,6.48
2022-10-11T22:13:59.055Z,6.39
2022-10-11T22:19:23.986Z,6.38
2022-10-11T22:24:51.033Z,6.36
2022-10-11T22:30:18.020Z,6.35
2022-10-11T22:35:41.982Z,6.31
2022-10-11T22:41:10.058Z,6.28
2022-10-11T22:46:34.044Z,6.21
2022-10-11T22:51:59.249Z,6.15
2022-10-11T22:57:31.047Z,6.07
2022-10-11T23:02:56.034Z,6.01
2022-10-11T23:08:22.024Z,5.95
2022-10-11T23:13:50.211Z,5.94
2022-10-11T23:19:14.020Z,5.91
2022-10-11T23:24:39.037Z,5.85
2022-10-11T23:30:06.063Z,5.80
2022-10-11T23:35:31.032Z,5.78
2022-10-11T23:40:58.335Z,5.70
2022-10-11T23:46:26.057Z,5.61
2022-10-11T23:51:50.056Z,5.58
2022-10-11T23:57:15.040Z,5.52
